sensor_id;sensor_type;location;lat;lon;timestamp;temperature;humidity
20700;DHT22;10511;51.232;9.420;2022-07-23T00:00:14;16.70;99.90
20700;DHT22;10511;51.232;9.420;2022-07-23T00:02:41;16.80;99.90
20700;DHT22;10511;51.232;9.420;2022-07-23T00:05:09;16.70;99.90
20700;DHT22;10511;51.232;9.420;2022-07-23T00:07:37;16.70;99.90
20700;DHT22;10511;51.232;9.420;2022-07-23T00:10:05;16.70;99.90
20700;DHT22;10511;51.232;9.420;2022-07-23T00:12:32;16.70;99.90
20700;DHT22;10511;51.232;9.420;2022-07-23T00:14:59;16.70;99.90
20700;DHT22;10511;51.232;9.420;2022-07-23T00:17:26;16.70;99.90
20700;DHT22;10511;51.232;9.420;2022-07-23T00:19:53;16.70;99.90
20700;DHT22;10511;51.232;9.420;2022-07-23T00:22:20;16.70;99.90
20700;DHT22;10511;51.232;9.420;2022-07-23T00:24:48;16.90;99.90
20700;DHT22;10511;51.232;9.420;2022-07-23T00:27:15;17.10;99.90
20700;DHT22;10511;51.232;9.420;2022-07-23T00:29:42;17.10;99.90
20700;DHT22;10511;51.232;9.420;2022-07-23T00:32:09;16.90;99.90
20700;DHT22;10511;51.232;9.420;2022-07-23T00:34:36;16.80;99.90
20700;DHT22;10511;51.232;9.420;2022-07-23T00:37:03;16.70;99.90
20700;DHT22;10511;51.232;9.420;2022-07-23T00:39:30;16.50;99.90
20700;DHT22;10511;51.232;9.420;2022-07-23T00:41:58;16.50;99.90
20700;DHT22;10511;51.232;9.420;2022-07-23T00:44:26;16.40;99.90
20700;DHT22;10511;51.232;9.420;2022-07-23T00:46:55;16.40;99.90
20700;DHT22;10511;51.232;9.420;2022-07-23T00:49:22;16.40;99.90
20700;DHT22;10511;51.232;9.420;2022-07-23T00:51:50;16.50;99.90
20700;DHT22;10511;51.232;9.420;2022-07-23T00:54:17;16.50;99.90
20700;DHT22;10511;51.232;9.420;2022-07-23T00:56:46;16.50;99.90
20700;DHT22;10511;51.232;9.420;2022-07-23T00:59:14;16.50;99.90
20700;DHT22;10511;51.232;9.420;2022-07-23T01:01:42;16.40;99.90
20700;DHT22;10511;51.232;9.420;2022-07-23T01:04:09;16.40;99.90
20700;DHT22;10511;51.232;9.420;2022-07-23T01:06:38;16.40;99.90
20700;DHT22;10511;51.232;9.420;2022-07-23T01:09:05;16.40;99.90
20700;DHT22;10511;51.232;9.420;2022-07-23T01:11:33;16.40;99.90
20700;DHT22;10511;51.232;9.420;2022-07-23T01:14:08;16.50;99.90
20700;DHT22;10511;51.232;9.420;2022-07-23T01:16:36;16.50;99.90
20700;DHT22;10511;51.232;9.420;2022-07-23T01:19:03;16.50;99.90
20700;DHT22;10511;51.232;9.420;2022-07-23T01:21:34;16.50;99.90
20700;DHT22;10511;51.232;9.420;2022-07-23T01:24:04;16.60;99.90
20700;DHT22;10511;51.232;9.420;2022-07-23T01:26:32;16.50;99.90
20700;DHT22;10511;51.232;9.420;2022-07-23T01:28:59;16.50;99.90
20700;DHT22;10511;51.232;9.420;2022-07-23T01:31:26;16.40;99.90
20700;DHT22;10511;51.232;9.420;2022-07-23T01:33:53;16.40;99.90
20700;DHT22;10511;51.232;9.420;2022-07-23T01:36:20;16.40;99.90
20700;DHT22;10511;51.232;9.420;2022-07-23T01:38:47;16.50;99.90
20700;DHT22;10511;51.232;9.420;2022-07-23T01:41:15;16.40;99.90
20700;DHT22;10511;51.232;9.420;2022-07-23T01:43:42;16.30;99.90
20700;DHT22;10511;51.232;9.420;2022-07-23T01:46:10;16.30;99.90
20700;DHT22;10511;51.232;9.420;2022-07-23T01:48:37;16.30;99.90
20700;DHT22;10511;51.232;9.420;2022-07-23T01:51:04;16.20;99.90
20700;DHT22;10511;51.232;9.420;2022-07-23T01:53:31;16.10;99.90
20700;DHT22;10511;51.232;9.420;2022-07-23T01:55:58;16.20;99.90
20700;DHT22;10511;51.232;9.420;2022-07-23T01:58:27;16.20;99.90
20700;DHT22;10511;51.232;9.420;2022-07-23T02:00:54;16.10;99.90
20700;DHT22;10511;51.232;9.420;2022-07-23T02:03:22;16.00;99.90
20700;DHT22;10511;51.232;9.420;2022-07-23T02:05:49;16.00;99.90
20700;DHT22;10511;51.232;9.420;2022-07-23T02:08:16;16.00;99.90
20700;DHT22;10511;51.232;9.420;2022-07-23T02:10:44;16.00;99.90
20700;DHT22;10511;51.232;9.420;2022-07-23T02:13:11;16.00;99.90
20700;DHT22;10511;51.232;9.420;2022-07-23T02:15:40;16.00;99.90
20700;DHT22;10511;51.232;9.420;2022-07-23T02:18:07;15.90;99.90
20700;DHT22;10511;51.232;9.420;2022-07-23T02:20:34;15.90;99.90
20700;DHT22;10511;51.232;9.420;2022-07-23T02:23:04;15.90;99.90
20700;DHT22;10511;51.232;9.420;2022-07-23T02:25:31;15.90;99.90
20700;DHT22;10511;51.232;9.420;2022-07-23T02:27:58;15.90;99.90
20700;DHT22;10511;51.232;9.420;2022-07-23T02:30:25;16.00;99.90
20700;DHT22;10511;51.232;9.420;2022-07-23T02:32:53;16.00;99.90
20700;DHT22;10511;51.232;9.420;2022-07-23T02:35:20;16.00;99.90
20700;DHT22;10511;51.232;9.420;2022-07-23T02:37:47;16.10;99.90
20700;DHT22;10511;51.232;9.420;2022-07-23T02:40:14;16.10;99.90
20700;DHT22;10511;51.232;9.420;2022-07-23T02:42:41;16.10;99.90
20700;DHT22;10511;51.232;9.420;2022-07-23T02:45:08;16.10;99.90
20700;DHT22;10511;51.232;9.420;2022-07-23T02:47:35;16.10;99.90
20700;DHT22;10511;51.232;9.420;2022-07-23T02:50:04;16.00;99.90
20700;DHT22;10511;51.232;9.420;2022-07-23T02:52:32;16.00;99.90
20700;DHT22;10511;51.232;9.420;2022-07-23T02:54:59;16.10;99.90
20700;DHT22;10511;51.232;9.420;2022-07-23T02:57:26;16.10;99.90
20700;DHT22;10511;51.232;9.420;2022-07-23T02:59:53;16.10;99.90
20700;DHT22;10511;51.232;9.420;2022-07-23T03:02:20;16.20;99.90
20700;DHT22;10511;51.232;9.420;2022-07-23T03:04:47;16.30;99.90
20700;DHT22;10511;51.232;9.420;2022-07-23T03:07:16;16.30;99.90
20700;DHT22;10511;51.232;9.420;2022-07-23T03:09:42;16.20;99.90
20700;DHT22;10511;51.232;9.420;2022-07-23T03:12:09;16.10;99.90
20700;DHT22;10511;51.232;9.420;2022-07-23T03:14:36;16.00;99.90
20700;DHT22;10511;51.232;9.420;2022-07-23T03:17:03;16.00;99.90
20700;DHT22;10511;51.232;9.420;2022-07-23T03:19:30;16.00;99.90
20700;DHT22;10511;51.232;9.420;2022-07-23T03:21:57;15.90;99.90
20700;DHT22;10511;51.232;9.420;2022-07-23T03:24:25;16.00;99.90
20700;DHT22;10511;51.232;9.420;2022-07-23T03:27:13;16.00;99.90
20700;DHT22;10511;51.232;9.420;2022-07-23T03:29:40;15.90;99.90
20700;DHT22;10511;51.232;9.420;2022-07-23T03:32:07;15.90;99.90
20700;DHT22;10511;51.232;9.420;2022-07-23T03:34:34;15.90;99.90
20700;DHT22;10511;51.232;9.420;2022-07-23T03:37:01;15.90;99.90
20700;DHT22;10511;51.232;9.420;2022-07-23T03:39:29;15.90;99.90
20700;DHT22;10511;51.232;9.420;2022-07-23T03:41:56;15.80;99.90
20700;DHT22;10511;51.232;9.420;2022-07-23T03:44:23;15.80;99.90
20700;DHT22;10511;51.232;9.420;2022-07-23T03:46:50;15.80;99.90
20700;DHT22;10511;51.232;9.420;2022-07-23T03:49:17;15.80;99.90
20700;DHT22;10511;51.232;9.420;2022-07-23T03:51:44;15.80;99.90
20700;DHT22;10511;51.232;9.420;2022-07-23T03:54:11;15.70;99.90
20700;DHT22;10511;51.232;9.420;2022-07-23T03:56:39;15.60;99.90
20700;DHT22;10511;51.232;9.420;2022-07-23T03:59:06;15.70;99.90
20700;DHT22;10511;51.232;9.420;2022-07-23T04:01:33;15.70;99.90
20700;DHT22;10511;51.232;9.420;2022-07-23T04:04:00;15.70;99.90
20700;DHT22;10511;51.232;9.420;2022-07-23T04:06:27;15.70;99.90
20700;DHT22;10511;51.232;9.420;2022-07-23T04:08:54;15.60;99.90
20700;DHT22;10511;51.232;9.420;2022-07-23T04:11:21;15.60;99.90
20700;DHT22;10511;51.232;9.420;2022-07-23T04:13:49;15.70;99.90
20700;DHT22;10511;51.232;9.420;2022-07-23T04:16:16;15.70;99.90
20700;DHT22;10511;51.232;9.420;2022-07-23T04:18:43;15.70;99.90
20700;DHT22;10511;51.232;9.420;2022-07-23T04:21:10;15.70;99.90
20700;DHT22;10511;51.232;9.420;2022-07-23T04:23:37;15.70;99.90
20700;DHT22;10511;51.232;9.420;2022-07-23T04:26:04;15.60;99.90
20700;DHT22;10511;51.232;9.420;2022-07-23T04:28:31;15.60;99.90
20700;DHT22;10511;51.232;9.420;2022-07-23T04:30:59;15.60;99.90
20700;DHT22;10511;51.232;9.420;2022-07-23T04:33:26;15.60;99.90
20700;DHT22;10511;51.232;9.420;2022-07-23T04:35:53;15.60;99.90
20700;DHT22;10511;51.232;9.420;2022-07-23T04:38:20;15.60;99.90
20700;DHT22;10511;51.232;9.420;2022-07-23T04:40:47;15.60;99.90
20700;DHT22;10511;51.232;9.420;2022-07-23T04:43:14;15.60;99.90
20700;DHT22;10511;51.232;9.420;2022-07-23T04:45:41;15.60;99.90
20700;DHT22;10511;51.232;9.420;2022-07-23T04:48:09;15.60;99.90
20700;DHT22;10511;51.232;9.420;2022-07-23T04:50:36;15.70;99.90
20700;DHT22;10511;51.232;9.420;2022-07-23T04:53:03;15.70;99.90
20700;DHT22;10511;51.232;9.420;2022-07-23T04:55:30;15.70;99.90
20700;DHT22;10511;51.232;9.420;2022-07-23T04:57:57;15.70;99.90
20700;DHT22;10511;51.232;9.420;2022-07-23T05:00:24;15.70;99.90
20700;DHT22;10511;51.232;9.420;2022-07-23T05:02:51;15.80;99.90
20700;DHT22;10511;51.232;9.420;2022-07-23T05:05:19;15.90;99.90
20700;DHT22;10511;51.232;9.420;2022-07-23T05:07:46;15.90;99.90
20700;DHT22;10511;51.232;9.420;2022-07-23T05:10:13;15.80;99.90
20700;DHT22;10511;51.232;9.420;2022-07-23T05:12:39;15.80;99.90
20700;DHT22;10511;51.232;9.420;2022-07-23T05:15:07;15.90;99.90
20700;DHT22;10511;51.232;9.420;2022-07-23T05:17:34;15.90;99.90
20700;DHT22;10511;51.232;9.420;2022-07-23T05:20:00;15.90;99.90
20700;DHT22;10511;51.232;9.420;2022-07-23T05:22:29;16.00;99.90
20700;DHT22;10511;51.232;9.420;2022-07-23T05:24:56;16.10;99.90
20700;DHT22;10511;51.232;9.420;2022-07-23T05:27:23;16.00;99.90
20700;DHT22;10511;51.232;9.420;2022-07-23T05:29:49;16.00;99.90
20700;DHT22;10511;51.232;9.420;2022-07-23T05:32:16;15.90;99.90
20700;DHT22;10511;51.232;9.420;2022-07-23T05:34:43;16.00;99.90
20700;DHT22;10511;51.232;9.420;2022-07-23T05:37:10;16.00;99.90
20700;DHT22;10511;51.232;9.420;2022-07-23T05:39:38;16.10;99.90
20700;DHT22;10511;51.232;9.420;2022-07-23T05:42:06;16.00;99.90
20700;DHT22;10511;51.232;9.420;2022-07-23T05:44:33;16.10;99.90
20700;DHT22;10511;51.232;9.420;2022-07-23T05:47:00;16.10;99.90
20700;DHT22;10511;51.232;9.420;2022-07-23T05:49:27;16.10;99.90
20700;DHT22;10511;51.232;9.420;2022-07-23T05:51:54;16.20;99.90
20700;DHT22;10511;51.232;9.420;2022-07-23T05:54:21;16.20;99.90
20700;DHT22;10511;51.232;9.420;2022-07-23T05:56:49;16.30;99.90
20700;DHT22;10511;51.232;9.420;2022-07-23T05:59:18;16.30;99.90
20700;DHT22;10511;51.232;9.420;2022-07-23T06:01:45;16.30;99.90
20700;DHT22;10511;51.232;9.420;2022-07-23T06:04:12;16.40;99.90
20700;DHT22;10511;51.232;9.420;2022-07-23T06:06:39;16.50;99.90
20700;DHT22;10511;51.232;9.420;2022-07-23T06:09:06;16.60;99.90
20700;DHT22;10511;51.232;9.420;2022-07-23T06:11:32;16.60;99.90
20700;DHT22;10511;51.232;9.420;2022-07-23T06:14:01;16.60;99.90
20700;DHT22;10511;51.232;9.420;2022-07-23T06:16:28;16.70;99.90
20700;DHT22;10511;51.232;9.420;2022-07-23T06:18:55;16.80;99.90
20700;DHT22;10511;51.232;9.420;2022-07-23T06:21:22;16.90;99.90
20700;DHT22;10511;51.232;9.420;2022-07-23T06:23:49;17.00;99.90
20700;DHT22;10511;51.232;9.420;2022-07-23T06:26:16;17.00;99.90
20700;DHT22;10511;51.232;9.420;2022-07-23T06:28:42;17.10;99.90
20700;DHT22;10511;51.232;9.420;2022-07-23T06:31:11;17.10;99.90
20700;DHT22;10511;51.232;9.420;2022-07-23T06:33:38;17.10;99.90
20700;DHT22;10511;51.232;9.420;2022-07-23T06:36:05;17.10;99.90
20700;DHT22;10511;51.232;9.420;2022-07-23T06:38:32;17.10;99.90
20700;DHT22;10511;51.232;9.420;2022-07-23T06:40:59;17.20;99.90
20700;DHT22;10511;51.232;9.420;2022-07-23T06:43:26;17.30;99.90
20700;DHT22;10511;51.232;9.420;2022-07-23T06:45:53;17.40;99.90
20700;DHT22;10511;51.232;9.420;2022-07-23T06:48:21;17.30;99.90
20700;DHT22;10511;51.232;9.420;2022-07-23T06:50:48;17.20;99.90
20700;DHT22;10511;51.232;9.420;2022-07-23T06:53:15;17.30;99.90
20700;DHT22;10511;51.232;9.420;2022-07-23T06:55:42;17.40;99.90
20700;DHT22;10511;51.232;9.420;2022-07-23T06:58:09;17.40;99.90
20700;DHT22;10511;51.232;9.420;2022-07-23T07:00:36;17.50;99.90
20700;DHT22;10511;51.232;9.420;2022-07-23T07:03:03;17.60;99.90
20700;DHT22;10511;51.232;9.420;2022-07-23T07:05:31;17.70;99.90
20700;DHT22;10511;51.232;9.420;2022-07-23T07:07:58;17.80;99.90
20700;DHT22;10511;51.232;9.420;2022-07-23T07:10:25;17.80;99.90
20700;DHT22;10511;51.232;9.420;2022-07-23T07:12:52;17.90;99.90
20700;DHT22;10511;51.232;9.420;2022-07-23T07:15:19;17.90;99.90
20700;DHT22;10511;51.232;9.420;2022-07-23T07:17:46;18.10;99.90
20700;DHT22;10511;51.232;9.420;2022-07-23T07:20:13;18.10;99.90
20700;DHT22;10511;51.232;9.420;2022-07-23T07:22:41;18.20;99.90
20700;DHT22;10511;51.232;9.420;2022-07-23T07:25:08;18.30;99.90
20700;DHT22;10511;51.232;9.420;2022-07-23T07:27:35;18.30;99.90
20700;DHT22;10511;51.232;9.420;2022-07-23T07:30:03;18.30;99.90
20700;DHT22;10511;51.232;9.420;2022-07-23T07:32:30;18.40;99.90
20700;DHT22;10511;51.232;9.420;2022-07-23T07:34:58;18.40;99.90
20700;DHT22;10511;51.232;9.420;2022-07-23T07:37:25;18.50;99.90
20700;DHT22;10511;51.232;9.420;2022-07-23T07:39:53;18.50;99.90
20700;DHT22;10511;51.232;9.420;2022-07-23T07:42:20;18.50;99.90
20700;DHT22;10511;51.232;9.420;2022-07-23T07:44:47;18.40;99.90
20700;DHT22;10511;51.232;9.420;2022-07-23T07:47:14;18.40;99.90
20700;DHT22;10511;51.232;9.420;2022-07-23T07:49:41;18.50;99.90
20700;DHT22;10511;51.232;9.420;2022-07-23T07:52:08;18.60;99.90
20700;DHT22;10511;51.232;9.420;2022-07-23T07:54:35;18.70;99.90
20700;DHT22;10511;51.232;9.420;2022-07-23T07:57:03;18.80;99.90
20700;DHT22;10511;51.232;9.420;2022-07-23T07:59:30;19.00;99.90
20700;DHT22;10511;51.232;9.420;2022-07-23T08:01:57;19.10;99.90
20700;DHT22;10511;51.232;9.420;2022-07-23T08:04:23;19.10;99.90
20700;DHT22;10511;51.232;9.420;2022-07-23T08:06:50;19.00;99.90
20700;DHT22;10511;51.232;9.420;2022-07-23T08:09:17;19.10;99.90
20700;DHT22;10511;51.232;9.420;2022-07-23T08:11:44;19.00;99.90
20700;DHT22;10511;51.232;9.420;2022-07-23T08:14:12;19.10;99.90
20700;DHT22;10511;51.232;9.420;2022-07-23T08:16:40;19.20;99.90
20700;DHT22;10511;51.232;9.420;2022-07-23T08:19:07;19.20;99.90
20700;DHT22;10511;51.232;9.420;2022-07-23T08:21:34;19.20;99.90
20700;DHT22;10511;51.232;9.420;2022-07-23T08:24:01;19.30;99.90
20700;DHT22;10511;51.232;9.420;2022-07-23T08:26:28;19.60;99.90
20700;DHT22;10511;51.232;9.420;2022-07-23T08:28:55;19.70;99.90
20700;DHT22;10511;51.232;9.420;2022-07-23T08:31:23;20.00;99.90
20700;DHT22;10511;51.232;9.420;2022-07-23T08:33:50;20.00;99.90
20700;DHT22;10511;51.232;9.420;2022-07-23T08:36:18;20.00;99.90
20700;DHT22;10511;51.232;9.420;2022-07-23T08:38:45;19.80;99.90
20700;DHT22;10511;51.232;9.420;2022-07-23T08:41:12;19.70;99.90
20700;DHT22;10511;51.232;9.420;2022-07-23T08:43:40;19.50;99.90
20700;DHT22;10511;51.232;9.420;2022-07-23T08:46:08;19.70;99.90
20700;DHT22;10511;51.232;9.420;2022-07-23T08:48:37;19.70;99.90
20700;DHT22;10511;51.232;9.420;2022-07-23T08:51:05;19.70;99.90
20700;DHT22;10511;51.232;9.420;2022-07-23T08:53:34;20.10;99.90
20700;DHT22;10511;51.232;9.420;2022-07-23T08:56:06;20.20;99.90
20700;DHT22;10511;51.232;9.420;2022-07-23T08:58:38;20.30;99.90
20700;DHT22;10511;51.232;9.420;2022-07-23T09:01:06;20.40;99.90
20700;DHT22;10511;51.232;9.420;2022-07-23T09:03:35;20.50;99.90
20700;DHT22;10511;51.232;9.420;2022-07-23T09:06:03;20.60;99.90
20700;DHT22;10511;51.232;9.420;2022-07-23T09:08:36;20.50;99.90
20700;DHT22;10511;51.232;9.420;2022-07-23T09:11:04;20.70;99.90
20700;DHT22;10511;51.232;9.420;2022-07-23T09:13:34;20.90;99.90
20700;DHT22;10511;51.232;9.420;2022-07-23T09:16:03;21.00;99.90
20700;DHT22;10511;51.232;9.420;2022-07-23T09:18:33;21.10;99.90
20700;DHT22;10511;51.232;9.420;2022-07-23T09:23:54;21.00;99.90
20700;DHT22;10511;51.232;9.420;2022-07-23T09:26:30;21.20;99.90
20700;DHT22;10511;51.232;9.420;2022-07-23T09:29:00;21.30;99.90
20700;DHT22;10511;51.232;9.420;2022-07-23T09:31:44;21.30;99.90
20700;DHT22;10511;51.232;9.420;2022-07-23T09:34:14;21.50;99.90
20700;DHT22;10511;51.232;9.420;2022-07-23T09:36:42;21.60;99.90
20700;DHT22;10511;51.232;9.420;2022-07-23T09:39:10;21.60;99.90
20700;DHT22;10511;51.232;9.420;2022-07-23T09:41:40;21.50;99.90
20700;DHT22;10511;51.232;9.420;2022-07-23T09:44:12;21.40;99.90
20700;DHT22;10511;51.232;9.420;2022-07-23T09:46:39;21.30;99.90
20700;DHT22;10511;51.232;9.420;2022-07-23T09:49:21;21.30;99.90
20700;DHT22;10511;51.232;9.420;2022-07-23T09:51:54;21.40;99.90
20700;DHT22;10511;51.232;9.420;2022-07-23T09:54:27;21.20;99.90
20700;DHT22;10511;51.232;9.420;2022-07-23T09:56:57;21.20;99.90
20700;DHT22;10511;51.232;9.420;2022-07-23T09:59:27;21.20;99.90
20700;DHT22;10511;51.232;9.420;2022-07-23T10:01:55;21.30;99.90
20700;DHT22;10511;51.232;9.420;2022-07-23T10:04:26;21.50;99.90
20700;DHT22;10511;51.232;9.420;2022-07-23T10:07:03;22.10;99.90
20700;DHT22;10511;51.232;9.420;2022-07-23T10:09:32;22.20;99.90
20700;DHT22;10511;51.232;9.420;2022-07-23T10:12:02;22.30;99.90
20700;DHT22;10511;51.232;9.420;2022-07-23T10:14:41;22.50;99.90
20700;DHT22;10511;51.232;9.420;2022-07-23T10:17:08;22.40;99.90
20700;DHT22;10511;51.232;9.420;2022-07-23T10:19:35;22.60;99.90
20700;DHT22;10511;51.232;9.420;2022-07-23T10:22:06;22.70;99.90
20700;DHT22;10511;51.232;9.420;2022-07-23T10:24:58;22.50;99.90
20700;DHT22;10511;51.232;9.420;2022-07-23T10:27:47;22.70;99.90
20700;DHT22;10511;51.232;9.420;2022-07-23T10:30:20;22.70;99.90
20700;DHT22;10511;51.232;9.420;2022-07-23T10:32:56;22.20;99.90
20700;DHT22;10511;51.232;9.420;2022-07-23T10:35:33;21.80;99.90
20700;DHT22;10511;51.232;9.420;2022-07-23T10:38:11;21.90;99.90
20700;DHT22;10511;51.232;9.420;2022-07-23T10:40:53;22.20;99.90
20700;DHT22;10511;51.232;9.420;2022-07-23T10:43:21;22.10;99.90
20700;DHT22;10511;51.232;9.420;2022-07-23T10:45:49;22.30;99.90
20700;DHT22;10511;51.232;9.420;2022-07-23T10:48:17;22.40;99.90
20700;DHT22;10511;51.232;9.420;2022-07-23T10:51:08;22.70;99.90
20700;DHT22;10511;51.232;9.420;2022-07-23T10:54:04;22.70;99.90
20700;DHT22;10511;51.232;9.420;2022-07-23T10:57:05;23.00;99.90
20700;DHT22;10511;51.232;9.420;2022-07-23T11:02:34;23.10;99.90
20700;DHT22;10511;51.232;9.420;2022-07-23T11:05:05;23.40;99.90
20700;DHT22;10511;51.232;9.420;2022-07-23T11:07:33;23.70;99.90
20700;DHT22;10511;51.232;9.420;2022-07-23T11:10:02;23.90;99.90
20700;DHT22;10511;51.232;9.420;2022-07-23T11:12:34;24.00;99.90
20700;DHT22;10511;51.232;9.420;2022-07-23T11:15:06;24.00;99.90
20700;DHT22;10511;51.232;9.420;2022-07-23T11:17:35;23.80;99.90
20700;DHT22;10511;51.232;9.420;2022-07-23T11:20:20;23.70;99.90
20700;DHT22;10511;51.232;9.420;2022-07-23T11:22:50;23.70;99.90
20700;DHT22;10511;51.232;9.420;2022-07-23T11:25:38;23.70;99.90
20700;DHT22;10511;51.232;9.420;2022-07-23T11:28:14;23.80;99.90
20700;DHT22;10511;51.232;9.420;2022-07-23T11:30:43;23.70;99.90
20700;DHT22;10511;51.232;9.420;2022-07-23T11:33:21;23.70;99.90
20700;DHT22;10511;51.232;9.420;2022-07-23T11:35:59;24.00;99.90
20700;DHT22;10511;51.232;9.420;2022-07-23T11:38:30;23.90;99.90
20700;DHT22;10511;51.232;9.420;2022-07-23T11:40:59;23.90;99.90
20700;DHT22;10511;51.232;9.420;2022-07-23T11:43:26;24.00;99.90
20700;DHT22;10511;51.232;9.420;2022-07-23T11:45:56;24.10;99.90
20700;DHT22;10511;51.232;9.420;2022-07-23T11:48:26;24.20;99.90
20700;DHT22;10511;51.232;9.420;2022-07-23T11:50:55;24.30;99.90
20700;DHT22;10511;51.232;9.420;2022-07-23T11:53:23;24.30;99.90
20700;DHT22;10511;51.232;9.420;2022-07-23T11:55:50;24.20;99.90
20700;DHT22;10511;51.232;9.420;2022-07-23T11:58:19;24.40;99.90
20700;DHT22;10511;51.232;9.420;2022-07-23T12:00:46;24.20;99.90
20700;DHT22;10511;51.232;9.420;2022-07-23T12:03:13;24.00;99.90
20700;DHT22;10511;51.232;9.420;2022-07-23T12:05:40;24.40;99.90
20700;DHT22;10511;51.232;9.420;2022-07-23T12:08:09;24.30;99.90
20700;DHT22;10511;51.232;9.420;2022-07-23T12:10:38;24.60;99.90
20700;DHT22;10511;51.232;9.420;2022-07-23T12:13:06;24.60;99.90
20700;DHT22;10511;51.232;9.420;2022-07-23T12:15:38;24.80;99.90
20700;DHT22;10511;51.232;9.420;2022-07-23T12:18:06;24.90;99.90
20700;DHT22;10511;51.232;9.420;2022-07-23T12:20:36;25.10;99.90
20700;DHT22;10511;51.232;9.420;2022-07-23T12:23:05;24.90;99.90
20700;DHT22;10511;51.232;9.420;2022-07-23T12:25:34;24.90;99.90
20700;DHT22;10511;51.232;9.420;2022-07-23T12:28:04;24.70;99.90
20700;DHT22;10511;51.232;9.420;2022-07-23T12:30:33;25.10;99.90
20700;DHT22;10511;51.232;9.420;2022-07-23T12:33:03;25.40;99.90
20700;DHT22;10511;51.232;9.420;2022-07-23T12:35:33;25.30;99.90
20700;DHT22;10511;51.232;9.420;2022-07-23T12:38:03;25.00;99.90
20700;DHT22;10511;51.232;9.420;2022-07-23T12:40:32;25.10;99.90
20700;DHT22;10511;51.232;9.420;2022-07-23T12:43:02;25.10;99.90
20700;DHT22;10511;51.232;9.420;2022-07-23T12:45:42;25.00;99.90
20700;DHT22;10511;51.232;9.420;2022-07-23T12:48:19;24.80;99.90
20700;DHT22;10511;51.232;9.420;2022-07-23T12:50:50;24.70;99.90
20700;DHT22;10511;51.232;9.420;2022-07-23T12:53:19;25.00;99.90
20700;DHT22;10511;51.232;9.420;2022-07-23T12:55:47;25.20;99.90
20700;DHT22;10511;51.232;9.420;2022-07-23T12:58:16;25.10;99.90
20700;DHT22;10511;51.232;9.420;2022-07-23T13:00:58;25.00;99.90
20700;DHT22;10511;51.232;9.420;2022-07-23T13:03:29;25.10;99.90
20700;DHT22;10511;51.232;9.420;2022-07-23T13:05:57;24.90;99.90
20700;DHT22;10511;51.232;9.420;2022-07-23T13:08:26;25.10;99.90
20700;DHT22;10511;51.232;9.420;2022-07-23T13:10:54;25.20;99.90
20700;DHT22;10511;51.232;9.420;2022-07-23T13:13:22;25.10;99.90
20700;DHT22;10511;51.232;9.420;2022-07-23T13:15:49;25.00;99.90
20700;DHT22;10511;51.232;9.420;2022-07-23T13:18:16;25.00;99.90
20700;DHT22;10511;51.232;9.420;2022-07-23T13:20:45;25.00;99.90
20700;DHT22;10511;51.232;9.420;2022-07-23T13:23:13;25.10;99.90
20700;DHT22;10511;51.232;9.420;2022-07-23T13:25:40;25.30;99.90
20700;DHT22;10511;51.232;9.420;2022-07-23T13:28:07;25.40;99.90
20700;DHT22;10511;51.232;9.420;2022-07-23T13:30:34;25.70;99.90
20700;DHT22;10511;51.232;9.420;2022-07-23T13:33:02;25.70;99.90
20700;DHT22;10511;51.232;9.420;2022-07-23T13:35:29;25.50;99.90
20700;DHT22;10511;51.232;9.420;2022-07-23T13:37:57;25.60;99.90
20700;DHT22;10511;51.232;9.420;2022-07-23T13:40:24;25.50;99.90
20700;DHT22;10511;51.232;9.420;2022-07-23T13:42:51;25.40;99.90
20700;DHT22;10511;51.232;9.420;2022-07-23T13:45:18;25.30;99.90
20700;DHT22;10511;51.232;9.420;2022-07-23T13:47:45;25.20;99.90
20700;DHT22;10511;51.232;9.420;2022-07-23T13:50:12;25.10;99.90
20700;DHT22;10511;51.232;9.420;2022-07-23T13:52:41;25.10;99.90
20700;DHT22;10511;51.232;9.420;2022-07-23T13:55:10;25.40;99.90
20700;DHT22;10511;51.232;9.420;2022-07-23T13:57:37;25.50;99.90
20700;DHT22;10511;51.232;9.420;2022-07-23T14:00:06;25.30;99.60
20700;DHT22;10511;51.232;9.420;2022-07-23T14:02:35;25.20;99.90
20700;DHT22;10511;51.232;9.420;2022-07-23T14:05:03;25.40;99.90
20700;DHT22;10511;51.232;9.420;2022-07-23T14:07:30;25.40;99.90
20700;DHT22;10511;51.232;9.420;2022-07-23T14:09:57;25.40;99.90
20700;DHT22;10511;51.232;9.420;2022-07-23T14:12:26;25.30;99.90
20700;DHT22;10511;51.232;9.420;2022-07-23T14:14:52;25.40;99.90
20700;DHT22;10511;51.232;9.420;2022-07-23T14:17:19;25.40;99.90
20700;DHT22;10511;51.232;9.420;2022-07-23T14:19:46;25.50;99.90
20700;DHT22;10511;51.232;9.420;2022-07-23T14:22:13;25.60;99.90
20700;DHT22;10511;51.232;9.420;2022-07-23T14:24:40;25.60;99.90
20700;DHT22;10511;51.232;9.420;2022-07-23T14:27:07;25.30;99.50
20700;DHT22;10511;51.232;9.420;2022-07-23T14:29:36;25.10;99.90
20700;DHT22;10511;51.232;9.420;2022-07-23T14:32:03;25.10;99.90
20700;DHT22;10511;51.232;9.420;2022-07-23T14:34:30;25.30;99.50
20700;DHT22;10511;51.232;9.420;2022-07-23T14:36:58;25.50;99.90
20700;DHT22;10511;51.232;9.420;2022-07-23T14:39:25;25.40;99.40
20700;DHT22;10511;51.232;9.420;2022-07-23T14:41:52;25.40;99.60
20700;DHT22;10511;51.232;9.420;2022-07-23T14:44:19;25.60;99.90
20700;DHT22;10511;51.232;9.420;2022-07-23T14:46:48;25.70;99.90
20700;DHT22;10511;51.232;9.420;2022-07-23T14:49:15;25.60;98.50
20700;DHT22;10511;51.232;9.420;2022-07-23T14:51:42;25.70;98.40
20700;DHT22;10511;51.232;9.420;2022-07-23T14:54:10;25.60;98.80
20700;DHT22;10511;51.232;9.420;2022-07-23T14:56:37;25.70;99.00
20700;DHT22;10511;51.232;9.420;2022-07-23T14:59:04;25.70;99.70
20700;DHT22;10511;51.232;9.420;2022-07-23T15:01:31;25.70;99.00
20700;DHT22;10511;51.232;9.420;2022-07-23T15:04:00;26.00;99.40
20700;DHT22;10511;51.232;9.420;2022-07-23T15:06:27;25.90;98.00
20700;DHT22;10511;51.232;9.420;2022-07-23T15:08:54;25.90;98.30
20700;DHT22;10511;51.232;9.420;2022-07-23T15:11:21;26.00;98.00
20700;DHT22;10511;51.232;9.420;2022-07-23T15:13:48;25.80;97.90
20700;DHT22;10511;51.232;9.420;2022-07-23T15:16:15;25.60;97.20
20700;DHT22;10511;51.232;9.420;2022-07-23T15:18:42;25.40;98.00
20700;DHT22;10511;51.232;9.420;2022-07-23T15:21:10;25.40;97.60
20700;DHT22;10511;51.232;9.420;2022-07-23T15:23:37;25.40;97.90
20700;DHT22;10511;51.232;9.420;2022-07-23T15:26:05;25.40;97.30
20700;DHT22;10511;51.232;9.420;2022-07-23T15:28:33;25.30;97.70
20700;DHT22;10511;51.232;9.420;2022-07-23T15:31:00;25.30;98.30
20700;DHT22;10511;51.232;9.420;2022-07-23T15:33:27;25.20;98.10
20700;DHT22;10511;51.232;9.420;2022-07-23T15:35:54;25.10;98.10
20700;DHT22;10511;51.232;9.420;2022-07-23T15:38:24;25.10;98.10
20700;DHT22;10511;51.232;9.420;2022-07-23T15:40:52;25.10;97.70
20700;DHT22;10511;51.232;9.420;2022-07-23T15:43:20;25.00;98.00